Time;durP1;ratioP1;P1;durP2;ratioP2;P2;SDS_P1;SDS_P2;PMS_P1;PMS_P2;Temp;Humidity;BMP_temperature;BMP_pressure;BME280_temperature;BME280_humidity;BME280_pressure;Samples;Min_cycle;Max_cycle;Signal;HPM_P1;HPM_P2
2022/01/27 00:00:43;;;;;;;17.30;8.53;;;4.30;99.90;;;;;;5028280;28;20293;-73
2022/01/27 00:05:40;;;;;;;16.10;8.43;;;4.30;99.90;;;;;;5033120;28;20193;-67
2022/01/27 00:13:11;;;;;;;16.40;8.53;;;4.20;99.90;;;;;;5029504;28;20197;-72
2022/01/27 00:15:39;;;;;;;14.77;8.80;;;4.30;99.90;;;;;;5030875;28;20448;-72
2022/01/27 00:18:12;;;;;;;13.83;7.87;;;4.30;99.90;;;;;;5031321;28;20198;-73
2022/01/27 00:20:38;;;;;;;14.87;7.77;;;4.30;99.90;;;;;;5026344;28;20201;-73
2022/01/27 00:23:06;;;;;;;15.87;8.23;;;4.30;99.90;;;;;;5046855;28;20170;-71
2022/01/27 00:25:32;;;;;;;13.30;7.80;;;4.30;99.90;;;;;;5040971;28;20197;-73
2022/01/27 00:27:57;;;;;;;14.87;8.07;;;4.30;99.90;;;;;;5028936;28;20175;-71
2022/01/27 00:30:25;;;;;;;14.50;8.10;;;4.30;99.90;;;;;;5031794;28;20182;-70
2022/01/27 00:32:51;;;;;;;14.00;7.77;;;4.30;99.90;;;;;;5046480;28;20228;-71
2022/01/27 00:35:19;;;;;;;15.63;8.90;;;4.30;99.90;;;;;;5030081;28;20170;-69
2022/01/27 00:37:47;;;;;;;13.77;8.07;;;4.30;99.90;;;;;;5021898;28;20178;-73
2022/01/27 00:40:17;;;;;;;12.80;7.43;;;4.30;99.90;;;;;;5029406;28;20209;-71
2022/01/27 00:42:45;;;;;;;14.00;7.87;;;4.30;99.90;;;;;;5029754;28;20166;-70
2022/01/27 00:45:11;;;;;;;15.50;8.10;;;4.30;99.90;;;;;;5027596;28;20174;-73
2022/01/27 00:47:37;;;;;;;13.83;7.40;;;4.30;99.90;;;;;;5030849;28;20228;-73
2022/01/27 00:50:04;;;;;;;11.97;6.97;;;4.30;99.90;;;;;;5045441;28;20182;-73
2022/01/27 00:52:37;;;;;;;13.33;6.93;;;4.30;99.90;;;;;;5024002;28;20206;-73
2022/01/27 00:55:05;;;;;;;13.40;7.60;;;4.30;99.90;;;;;;5033261;28;20181;-70
2022/01/27 01:00:07;;;;;;;11.83;7.07;;;4.30;99.90;;;;;;5032060;28;20194;-70
2022/01/27 01:03:37;;;;;;;14.20;8.23;;;4.30;99.90;;;;;;5029775;28;20200;-71
2022/01/27 01:08:31;;;;;;;11.97;6.63;;;4.30;99.90;;;;;;5027604;28;20247;-74
2022/01/27 01:15:55;;;;;;;13.27;7.37;;;4.30;99.90;;;;;;5030141;28;20205;-72
2022/01/27 01:34:27;;;;;;;13.50;7.03;;;4.30;99.90;;;;;;5027799;28;20227;-72
2022/01/27 01:36:57;;;;;;;12.53;7.10;;;4.30;99.90;;;;;;5030187;28;20269;-72
2022/01/27 01:39:33;;;;;;;10.97;6.60;;;4.30;99.90;;;;;;5031042;28;20207;-73
2022/01/27 01:42:03;;;;;;;11.67;6.80;;;4.20;99.90;;;;;;5031209;28;20177;-73
2022/01/27 01:44:29;;;;;;;9.97;6.10;;;4.30;99.90;;;;;;5029470;28;20633;-73
2022/01/27 01:46:57;;;;;;;11.27;6.53;;;4.30;99.90;;;;;;5031721;28;20291;-71
2022/01/27 01:49:26;;;;;;;11.17;6.50;;;4.30;99.90;;;;;;5024456;28;20185;-72
2022/01/27 01:51:58;;;;;;;10.63;6.23;;;4.30;99.90;;;;;;5047137;28;20324;-73
2022/01/27 01:54:25;;;;;;;12.03;7.53;;;4.30;99.90;;;;;;5029905;28;20642;-70
2022/01/27 01:56:52;;;;;;;10.40;6.60;;;4.30;99.90;;;;;;5032394;28;20227;-71
2022/01/27 01:59:18;;;;;;;12.73;7.67;;;4.30;99.90;;;;;;5029904;28;20206;-73
2022/01/27 02:01:47;;;;;;;11.53;7.23;;;4.30;99.90;;;;;;5029327;28;20409;-71
2022/01/27 02:04:14;;;;;;;13.07;7.50;;;4.30;99.90;;;;;;5049568;28;20185;-69
2022/01/27 02:06:59;;;;;;;11.13;6.63;;;4.30;99.90;;;;;;5047176;28;20169;-72
2022/01/27 02:09:35;;;;;;;11.73;6.80;;;4.30;99.90;;;;;;5031823;28;20200;-71
2022/01/27 02:20:19;;;;;;;13.00;7.50;;;4.30;99.90;;;;;;5026598;28;20309;-73
2022/01/27 02:22:45;;;;;;;14.20;7.87;;;4.30;99.90;;;;;;5042573;28;20236;-71
2022/01/27 02:25:10;;;;;;;12.87;7.13;;;4.30;99.90;;;;;;5028025;28;20190;-72
2022/01/27 02:27:36;;;;;;;12.20;7.17;;;4.30;99.90;;;;;;5034274;28;20205;-73
2022/01/27 02:30:07;;;;;;;13.33;7.20;;;4.30;99.90;;;;;;5030045;28;20218;-72
2022/01/27 02:32:33;;;;;;;12.53;6.87;;;4.30;99.90;;;;;;5034120;28;20205;-73
2022/01/27 02:34:59;;;;;;;12.63;6.73;;;4.30;99.90;;;;;;5033696;28;20197;-73
2022/01/27 02:37:25;;;;;;;12.07;7.13;;;4.30;99.90;;;;;;5024018;28;20209;-73
2022/01/27 02:39:51;;;;;;;13.00;7.13;;;4.30;99.90;;;;;;5030559;28;20213;-71
2022/01/27 02:42:19;;;;;;;10.70;6.40;;;4.40;99.90;;;;;;5032530;28;20214;-73
2022/01/27 02:44:48;;;;;;;11.97;6.73;;;4.40;99.90;;;;;;5021724;28;20255;-71
2022/01/27 02:47:17;;;;;;;13.33;7.77;;;4.40;99.90;;;;;;5033802;28;20192;-73
2022/01/27 02:49:43;;;;;;;13.27;7.13;;;4.40;99.90;;;;;;5036070;28;20173;-73
2022/01/27 02:52:11;;;;;;;12.73;6.90;;;4.40;99.90;;;;;;5033943;28;20293;-69
2022/01/27 02:54:37;;;;;;;12.97;7.10;;;4.40;99.90;;;;;;5037839;28;20243;-71
2022/01/27 02:57:03;;;;;;;13.27;6.87;;;4.40;99.90;;;;;;5033372;28;20253;-72
2022/01/27 02:59:33;;;;;;;12.33;7.07;;;4.40;99.90;;;;;;5031489;28;20175;-73
2022/01/27 03:02:02;;;;;;;14.93;7.93;;;4.40;99.90;;;;;;5027728;28;20229;-73
2022/01/27 03:04:30;;;;;;;14.90;7.27;;;4.40;99.90;;;;;;5026228;28;20216;-73
2022/01/27 03:06:58;;;;;;;12.70;6.87;;;4.40;99.90;;;;;;5029790;28;20186;-72
2022/01/27 03:09:23;;;;;;;14.60;7.73;;;4.40;99.90;;;;;;5031812;28;20187;-73
2022/01/27 03:12:06;;;;;;;14.30;7.97;;;4.40;99.90;;;;;;5047459;28;20210;-71
2022/01/27 03:14:35;;;;;;;15.57;8.00;;;4.40;99.90;;;;;;5033691;28;20197;-73
2022/01/27 03:17:02;;;;;;;15.83;7.93;;;4.40;99.90;;;;;;5033540;28;20186;-70
2022/01/27 03:19:28;;;;;;;14.40;7.87;;;4.40;99.90;;;;;;5027408;28;20237;-72
2022/01/27 03:21:56;;;;;;;14.77;7.17;;;4.40;99.90;;;;;;5023490;28;20383;-73
2022/01/27 03:24:25;;;;;;;15.67;8.40;;;4.40;99.90;;;;;;5027468;28;20195;-73
2022/01/27 03:26:52;;;;;;;13.93;7.87;;;4.40;99.90;;;;;;5027866;28;20182;-73
2022/01/27 03:29:19;;;;;;;15.53;8.23;;;4.40;99.90;;;;;;5029224;28;20189;-73
2022/01/27 03:31:50;;;;;;;15.47;8.13;;;4.40;99.90;;;;;;5029795;28;20328;-73
2022/01/27 03:34:16;;;;;;;15.07;8.50;;;4.40;99.90;;;;;;5042219;28;20213;-73
2022/01/27 03:36:42;;;;;;;13.97;7.80;;;4.40;99.90;;;;;;5033318;28;20210;-72
2022/01/27 03:39:11;;;;;;;14.67;7.60;;;4.40;99.90;;;;;;5048260;28;20194;-72
2022/01/27 03:41:39;;;;;;;14.50;7.93;;;4.40;99.90;;;;;;5029818;28;20202;-72
2022/01/27 03:44:08;;;;;;;15.03;7.43;;;4.40;99.90;;;;;;5021525;28;20273;-73
2022/01/27 03:46:36;;;;;;;13.87;7.73;;;4.40;99.90;;;;;;5027587;28;20265;-73
2022/01/27 03:49:04;;;;;;;12.67;7.27;;;4.40;99.90;;;;;;5046972;28;20178;-69
2022/01/27 03:51:31;;;;;;;13.90;7.77;;;4.40;99.90;;;;;;5030238;28;20201;-73
2022/01/27 03:53:57;;;;;;;14.17;7.77;;;4.40;99.90;;;;;;5031703;28;20189;-73
2022/01/27 03:56:25;;;;;;;16.97;8.27;;;4.40;99.90;;;;;;5028581;28;20174;-75
2022/01/27 03:58:53;;;;;;;14.37;8.20;;;4.40;99.90;;;;;;5027059;28;20208;-71
2022/01/27 04:01:21;;;;;;;14.90;8.33;;;4.50;99.90;;;;;;5031755;28;20197;-73
2022/01/27 04:03:48;;;;;;;15.33;8.33;;;4.50;99.90;;;;;;5034101;28;20182;-71
2022/01/27 04:06:21;;;;;;;14.03;7.80;;;4.50;99.90;;;;;;5024262;28;20224;-72
2022/01/27 04:08:48;;;;;;;14.50;8.30;;;4.50;99.90;;;;;;5026565;28;20182;-73
2022/01/27 04:11:14;;;;;;;16.00;7.87;;;4.50;99.90;;;;;;5042716;28;20198;-73
2022/01/27 04:13:39;;;;;;;12.93;7.70;;;4.50;99.90;;;;;;5030527;28;20239;-71
2022/01/27 04:16:10;;;;;;;13.53;7.77;;;4.50;99.90;;;;;;5031800;28;20181;-74
2022/01/27 04:18:38;;;;;;;14.53;7.80;;;4.50;99.90;;;;;;5033407;28;20227;-73
2022/01/27 04:21:03;;;;;;;13.50;7.67;;;4.50;99.90;;;;;;5033345;28;20197;-72
2022/01/27 04:23:29;;;;;;;12.60;7.37;;;4.50;99.90;;;;;;5032311;28;20185;-73
2022/01/27 04:25:57;;;;;;;13.43;7.53;;;4.50;99.90;;;;;;5032571;28;20190;-73
2022/01/27 04:28:27;;;;;;;13.50;7.43;;;4.60;99.90;;;;;;5035026;28;20174;-73
2022/01/27 04:30:56;;;;;;;14.23;7.87;;;4.60;99.90;;;;;;5031122;28;20181;-73
2022/01/27 04:33:28;;;;;;;14.00;8.27;;;4.60;99.90;;;;;;5033025;28;20225;-71
2022/01/27 04:35:57;;;;;;;14.30;7.87;;;4.60;99.90;;;;;;5029763;28;20197;-75
2022/01/27 04:43:36;;;;;;;14.77;7.37;;;4.60;99.90;;;;;;5028640;28;20181;-75
2022/01/27 04:46:28;;;;;;;13.87;7.37;;;4.60;99.90;;;;;;5027188;28;20186;-72
2022/01/27 04:48:58;;;;;;;11.83;6.80;;;4.60;99.90;;;;;;5029047;28;20204;-74
2022/01/27 04:51:27;;;;;;;12.90;7.13;;;4.70;99.90;;;;;;5029949;28;20378;-75
2022/01/27 04:54:05;;;;;;;13.63;7.60;;;4.70;99.90;;;;;;5027597;28;20278;-73
2022/01/27 04:56:36;;;;;;;12.70;7.50;;;4.70;99.90;;;;;;5031512;28;20185;-75
2022/01/27 04:59:08;;;;;;;13.23;7.17;;;4.70;99.90;;;;;;5029861;28;20182;-73
2022/01/27 05:01:45;;;;;;;12.83;7.37;;;4.70;99.90;;;;;;5031158;28;20234;-75
2022/01/27 05:04:16;;;;;;;11.30;6.73;;;4.70;99.90;;;;;;5031141;28;20198;-76
2022/01/27 05:06:42;;;;;;;11.90;6.63;;;4.80;99.90;;;;;;5036687;28;20169;-71
2022/01/27 05:09:10;;;;;;;13.83;7.80;;;4.80;99.90;;;;;;5033387;28;20188;-72
2022/01/27 05:11:44;;;;;;;11.67;7.00;;;4.80;99.90;;;;;;5032327;28;20221;-74
2022/01/27 05:16:38;;;;;;;10.83;6.50;;;4.80;99.90;;;;;;5029149;28;20270;-75
2022/01/27 05:19:04;;;;;;;10.87;5.97;;;4.90;99.90;;;;;;5029704;28;20181;-75
2022/01/27 05:21:32;;;;;;;11.50;6.27;;;4.90;99.90;;;;;;5030242;28;20290;-73
2022/01/27 05:24:03;;;;;;;10.37;6.20;;;4.90;99.90;;;;;;5027280;28;20206;-75
2022/01/27 05:26:32;;;;;;;11.20;6.33;;;5.00;99.90;;;;;;5026013;28;20180;-72
2022/01/27 05:29:00;;;;;;;12.80;7.03;;;5.00;99.90;;;;;;5026723;28;20191;-73
2022/01/27 05:31:27;;;;;;;10.73;6.83;;;5.00;99.90;;;;;;5043349;28;20211;-75
2022/01/27 05:33:55;;;;;;;12.43;7.90;;;5.00;99.90;;;;;;5030533;28;20222;-74
2022/01/27 05:36:21;;;;;;;10.13;6.60;;;5.00;99.90;;;;;;5032062;28;20243;-75
2022/01/27 05:38:47;;;;;;;12.90;7.37;;;5.10;99.90;;;;;;5029944;28;20185;-72
2022/01/27 05:41:16;;;;;;;12.33;7.03;;;5.10;99.90;;;;;;5029249;28;20305;-66
2022/01/27 05:43:45;;;;;;;13.83;7.13;;;5.10;99.90;;;;;;5028721;28;20208;-71
2022/01/27 05:46:11;;;;;;;9.67;6.23;;;5.10;99.90;;;;;;5026850;28;20186;-74
2022/01/27 05:48:39;;;;;;;10.17;6.70;;;5.10;99.90;;;;;;5031442;28;20202;-66
2022/01/27 05:51:07;;;;;;;10.67;6.93;;;5.10;99.90;;;;;;5030373;28;20198;-74
2022/01/27 05:53:35;;;;;;;11.03;7.17;;;5.20;99.90;;;;;;5029628;28;20263;-74
2022/01/27 05:56:01;;;;;;;13.90;7.90;;;5.20;99.90;;;;;;5030165;28;20221;-70
2022/01/27 05:58:27;;;;;;;15.37;7.90;;;5.20;99.90;;;;;;5029628;28;20217;-75
2022/01/27 06:00:52;;;;;;;14.70;8.40;;;5.20;99.90;;;;;;5031505;28;20211;-71
2022/01/27 06:03:20;;;;;;;12.30;7.93;;;5.30;99.90;;;;;;5031457;28;20198;-71
2022/01/27 06:05:47;;;;;;;11.90;7.67;;;5.30;99.90;;;;;;5031239;28;20465;-69
2022/01/27 06:08:12;;;;;;;13.97;8.13;;;5.40;99.90;;;;;;5033572;28;20182;-72
2022/01/27 06:10:38;;;;;;;12.43;8.30;;;5.50;99.90;;;;;;5033414;28;20201;-69
2022/01/27 06:13:03;;;;;;;14.77;8.67;;;5.50;99.90;;;;;;5034869;28;20186;-72
2022/01/27 06:15:32;;;;;;;13.47;8.10;;;5.60;99.90;;;;;;5032141;28;20239;-70
2022/01/27 06:18:00;;;;;;;12.23;8.10;;;5.70;99.90;;;;;;5031988;28;20308;-75
2022/01/27 06:20:29;;;;;;;11.97;7.90;;;5.70;99.90;;;;;;5028651;28;20210;-79
2022/01/27 06:22:57;;;;;;;14.33;9.23;;;5.80;99.90;;;;;;5032434;28;20210;-75
2022/01/27 06:25:23;;;;;;;11.30;7.80;;;5.80;99.90;;;;;;5025493;28;20193;-81
2022/01/27 06:27:49;;;;;;;13.10;8.20;;;5.80;99.90;;;;;;5032790;28;20174;-72
2022/01/27 06:30:14;;;;;;;11.90;8.07;;;5.90;99.90;;;;;;5030774;28;20212;-74
2022/01/27 06:32:41;;;;;;;13.03;8.33;;;5.90;99.90;;;;;;5030589;28;20182;-74
2022/01/27 06:35:07;;;;;;;12.97;8.27;;;6.00;99.90;;;;;;5036887;28;20209;-73
2022/01/27 06:37:34;;;;;;;13.97;8.40;;;6.00;99.90;;;;;;5033883;28;20185;-71
2022/01/27 06:40:00;;;;;;;12.50;7.77;;;6.10;99.90;;;;;;5037157;28;20205;-77
2022/01/27 06:42:27;;;;;;;11.73;7.90;;;6.10;99.90;;;;;;5033433;28;20212;-76
2022/01/27 06:44:53;;;;;;;11.33;7.77;;;6.10;99.90;;;;;;5033377;28;20184;-75
2022/01/27 06:47:21;;;;;;;14.60;8.70;;;6.10;99.90;;;;;;5028150;28;20280;-73
2022/01/27 06:49:49;;;;;;;12.03;8.33;;;6.20;99.90;;;;;;5031249;28;20183;-73
2022/01/27 06:52:15;;;;;;;12.47;8.90;;;6.30;99.90;;;;;;5032117;28;20178;-85
2022/01/27 06:54:44;;;;;;;12.23;8.50;;;6.30;99.90;;;;;;5029678;28;20217;-74
2022/01/27 06:57:11;;;;;;;11.90;8.30;;;6.40;99.90;;;;;;5025484;28;20182;-75
2022/01/27 06:59:39;;;;;;;12.13;8.20;;;6.50;99.90;;;;;;5031867;28;20273;-72
2022/01/27 07:02:05;;;;;;;12.70;8.60;;;6.50;99.90;;;;;;5029241;28;20202;-76
2022/01/27 07:04:31;;;;;;;11.97;8.10;;;6.60;99.90;;;;;;5026881;28;20187;-77
2022/01/27 07:06:59;;;;;;;10.97;7.10;;;6.60;99.90;;;;;;5031839;28;20193;-78
2022/01/27 07:09:26;;;;;;;10.87;7.20;;;6.70;99.90;;;;;;5035228;28;20178;-78
2022/01/27 07:11:52;;;;;;;11.17;7.33;;;6.70;99.90;;;;;;5033673;28;20189;-71
2022/01/27 07:14:18;;;;;;;12.97;8.37;;;6.80;99.90;;;;;;5035775;28;20208;-80
2022/01/27 07:16:44;;;;;;;10.70;7.30;;;6.80;99.90;;;;;;5036099;28;20182;-72
2022/01/27 07:19:15;;;;;;;11.13;7.40;;;6.90;99.90;;;;;;5029233;28;20178;-77
2022/01/27 07:21:43;;;;;;;11.20;7.93;;;6.90;99.90;;;;;;5024221;28;20236;-76
2022/01/27 07:24:09;;;;;;;12.27;7.27;;;6.90;99.90;;;;;;5032584;28;20244;-80
2022/01/27 07:26:37;;;;;;;11.37;7.30;;;7.00;99.90;;;;;;5032450;28;20174;-83
2022/01/27 07:29:03;;;;;;;10.93;6.97;;;7.00;99.90;;;;;;5033313;28;20174;-77
2022/01/27 07:31:30;;;;;;;10.40;7.23;;;7.00;99.90;;;;;;5027277;28;20231;-83
2022/01/27 07:33:56;;;;;;;9.67;6.83;;;7.00;99.90;;;;;;5037260;28;20214;-69
2022/01/27 07:36:22;;;;;;;10.30;7.30;;;7.10;99.90;;;;;;5029234;28;20186;-76
2022/01/27 07:38:48;;;;;;;10.03;6.83;;;7.10;99.90;;;;;;5048027;28;20181;-80
2022/01/27 07:41:16;;;;;;;12.13;7.77;;;7.10;99.90;;;;;;5049437;28;20210;-81
2022/01/27 07:43:42;;;;;;;10.30;7.23;;;7.10;99.90;;;;;;5049476;28;20174;-79
2022/01/27 07:46:11;;;;;;;11.07;7.57;;;7.10;99.90;;;;;;5030409;28;20185;-84
2022/01/27 07:48:37;;;;;;;10.10;7.60;;;7.10;99.90;;;;;;5033976;28;20198;-79
2022/01/27 07:51:03;;;;;;;10.33;7.07;;;7.10;99.90;;;;;;5035166;28;20197;-74
2022/01/27 07:53:29;;;;;;;10.73;7.27;;;7.20;99.90;;;;;;5031477;28;20193;-75
2022/01/27 07:55:56;;;;;;;9.33;6.93;;;7.20;99.90;;;;;;5034606;28;20255;-77
2022/01/27 07:58:24;;;;;;;9.87;6.77;;;7.20;99.90;;;;;;5030059;28;20186;-79
2022/01/27 08:00:50;;;;;;;9.53;6.73;;;7.20;99.90;;;;;;5032351;28;20263;-72
2022/01/27 08:03:17;;;;;;;9.87;7.03;;;7.30;99.90;;;;;;5033799;28;20277;-71
2022/01/27 08:05:45;;;;;;;11.27;6.90;;;7.30;99.90;;;;;;5029022;28;20316;-79
2022/01/27 08:08:11;;;;;;;11.73;8.17;;;7.30;99.90;;;;;;5032796;28;20202;-77
2022/01/27 08:10:42;;;;;;;14.83;8.90;;;7.30;99.90;;;;;;5032877;28;20208;-73
2022/01/27 08:13:09;;;;;;;11.97;7.93;;;7.30;99.90;;;;;;5027276;28;20193;-81
2022/01/27 08:15:35;;;;;;;11.27;7.37;;;7.30;99.90;;;;;;5028709;28;20175;-83
2022/01/27 08:18:03;;;;;;;9.73;6.70;;;7.40;99.90;;;;;;5027337;28;20195;-74
2022/01/27 08:20:29;;;;;;;11.30;7.00;;;7.40;99.90;;;;;;5028029;28;20205;-70
2022/01/27 08:22:58;;;;;;;10.03;6.77;;;7.40;99.90;;;;;;5034037;28;20221;-83
2022/01/27 08:25:27;;;;;;;9.67;6.27;;;7.40;99.90;;;;;;5042131;28;20223;-80
2022/01/27 08:27:58;;;;;;;9.00;6.60;;;7.50;99.90;;;;;;5032368;28;20218;-72
2022/01/27 08:30:29;;;;;;;10.60;6.30;;;7.50;99.90;;;;;;5029816;28;20193;-75
2022/01/27 08:33:04;;;;;;;10.53;6.90;;;7.60;99.90;;;;;;5025030;28;20210;-79
2022/01/27 08:35:32;;;;;;;10.47;6.23;;;7.60;99.90;;;;;;5027283;28;20205;-81
2022/01/27 08:38:03;;;;;;;9.90;6.63;;;7.60;99.90;;;;;;5033613;28;20217;-80
2022/01/27 08:40:28;;;;;;;9.40;6.77;;;7.70;99.90;;;;;;5026616;28;20216;-81
2022/01/27 08:42:57;;;;;;;13.73;7.17;;;7.70;99.90;;;;;;5033123;28;20178;-79
2022/01/27 08:45:28;;;;;;;8.63;5.93;;;7.70;99.90;;;;;;5024578;28;20201;-69
2022/01/27 08:47:57;;;;;;;9.97;7.03;;;7.80;99.90;;;;;;5038822;28;20198;-78
2022/01/27 08:50:24;;;;;;;10.27;6.43;;;7.80;99.90;;;;;;5031008;28;20182;-77
2022/01/27 08:52:50;;;;;;;10.40;6.23;;;7.80;99.90;;;;;;5031346;28;20182;-75
2022/01/27 08:55:16;;;;;;;9.70;6.23;;;7.80;99.90;;;;;;5028829;28;21213;-72
2022/01/27 08:57:42;;;;;;;8.50;5.90;;;7.80;99.90;;;;;;5040103;28;20192;-72
2022/01/27 09:00:10;;;;;;;9.87;6.20;;;7.80;99.90;;;;;;5034134;28;20178;-78
2022/01/27 09:02:36;;;;;;;9.33;5.77;;;7.80;99.90;;;;;;5020494;28;20213;-77
2022/01/27 09:05:02;;;;;;;8.63;5.97;;;7.80;99.90;;;;;;5043928;28;20185;-81
2022/01/27 09:07:30;;;;;;;7.00;5.57;;;7.80;99.90;;;;;;5037102;28;20270;-81
2022/01/27 09:09:56;;;;;;;9.07;6.50;;;7.90;99.90;;;;;;5026014;28;20227;-82
2022/01/27 09:12:22;;;;;;;10.47;5.90;;;7.90;99.90;;;;;;5046101;28;20255;-81
2022/01/27 09:14:48;;;;;;;9.27;6.07;;;7.90;99.90;;;;;;5030265;28;20182;-73
2022/01/27 09:17:15;;;;;;;9.50;6.23;;;7.90;99.90;;;;;;5025074;28;20202;-79
2022/01/27 09:19:44;;;;;;;8.43;5.97;;;7.90;99.90;;;;;;5028384;28;20220;-69
2022/01/27 09:22:14;;;;;;;8.27;5.67;;;7.90;99.90;;;;;;5028470;28;20219;-82
2022/01/27 09:24:51;;;;;;;7.97;5.33;;;7.90;99.90;;;;;;5030322;28;20193;-86
2022/01/27 09:27:18;;;;;;;8.30;5.73;;;7.90;99.90;;;;;;5032140;28;20288;-74
2022/01/27 09:29:44;;;;;;;9.53;5.77;;;7.90;99.90;;;;;;5036910;28;20409;-77
2022/01/27 09:32:11;;;;;;;7.53;5.30;;;7.90;99.90;;;;;;5035266;28;20197;-81
2022/01/27 09:34:36;;;;;;;9.70;5.93;;;8.00;99.90;;;;;;5032080;28;20494;-84
2022/01/27 09:37:03;;;;;;;8.60;5.93;;;8.00;99.90;;;;;;5038054;28;20217;-76
2022/01/27 09:39:35;;;;;;;10.00;6.03;;;8.00;99.90;;;;;;5028532;28;20182;-74
2022/01/27 09:42:03;;;;;;;11.63;6.80;;;8.10;99.90;;;;;;5028278;28;20297;-70
2022/01/27 09:44:32;;;;;;;9.97;6.57;;;8.10;99.90;;;;;;5030417;28;20712;-76
2022/01/27 09:47:02;;;;;;;11.87;7.50;;;8.10;99.90;;;;;;5032828;28;20201;-71
2022/01/27 09:49:42;;;;;;;12.63;7.63;;;8.20;99.90;;;;;;5034503;28;20263;-78
2022/01/27 09:52:10;;;;;;;12.27;7.00;;;8.20;99.90;;;;;;5034684;28;20177;-72
2022/01/27 09:54:36;;;;;;;11.83;7.00;;;8.30;99.90;;;;;;5031075;28;20242;-73
2022/01/27 09:57:05;;;;;;;11.27;7.43;;;8.30;99.90;;;;;;5034910;28;20206;-74
2022/01/27 09:59:31;;;;;;;11.90;7.30;;;8.30;99.90;;;;;;5033869;28;20513;-76
2022/01/27 10:02:01;;;;;;;12.80;7.10;;;8.20;99.90;;;;;;5026904;28;20304;-81
2022/01/27 10:04:46;;;;;;;12.47;7.40;;;8.20;99.90;;;;;;5032305;28;20198;-79
2022/01/27 10:07:14;;;;;;;11.10;7.23;;;8.20;99.90;;;;;;5036231;28;20255;-72
2022/01/27 10:09:57;;;;;;;11.83;7.70;;;8.10;99.90;;;;;;5032859;28;20197;-81
2022/01/27 10:12:30;;;;;;;10.83;6.73;;;8.10;99.90;;;;;;5034625;28;20170;-75
2022/01/27 10:15:06;;;;;;;11.00;7.37;;;8.00;99.90;;;;;;5034917;28;20229;-84
2022/01/27 10:17:34;;;;;;;8.67;6.27;;;8.00;99.90;;;;;;5042008;28;20170;-77
2022/01/27 10:20:00;;;;;;;9.93;7.03;;;8.00;99.90;;;;;;5030535;28;20208;-72
2022/01/27 10:22:27;;;;;;;10.97;7.40;;;7.90;99.90;;;;;;5045105;28;20183;-81
2022/01/27 10:25:03;;;;;;;10.80;6.97;;;7.90;99.90;;;;;;5031211;28;20194;-80
2022/01/27 10:28:21;;;;;;;9.97;6.43;;;7.90;99.90;;;;;;5029387;28;20228;-73
2022/01/27 10:32:53;;;;;;;9.37;6.17;;;7.90;99.90;;;;;;5026480;28;20243;-79
2022/01/27 10:35:25;;;;;;;9.73;6.30;;;7.80;99.90;;;;;;5025308;28;20206;-77
2022/01/27 10:38:20;;;;;;;11.03;6.73;;;7.80;99.90;;;;;;5028503;28;20184;-80
2022/01/27 10:40:49;;;;;;;9.97;6.10;;;7.70;99.90;;;;;;5042874;28;20229;-76
2022/01/27 10:43:24;;;;;;;10.47;6.33;;;7.70;99.90;;;;;;5026949;28;20193;-81
2022/01/27 10:46:16;;;;;;;10.20;6.37;;;7.70;99.90;;;;;;5025160;28;20380;-72
2022/01/27 10:48:51;;;;;;;8.03;5.60;;;7.70;99.90;;;;;;5029162;28;20217;-77
2022/01/27 10:51:26;;;;;;;9.07;6.03;;;7.60;99.90;;;;;;5025092;28;20185;-74
2022/01/27 10:54:04;;;;;;;6.97;4.83;;;7.60;99.90;;;;;;5027160;28;20201;-75
2022/01/27 10:56:35;;;;;;;7.73;5.10;;;7.60;99.90;;;;;;5031920;28;20189;-80
2022/01/27 10:59:06;;;;;;;9.10;5.43;;;7.50;99.90;;;;;;5025056;28;20222;-80
2022/01/27 11:01:43;;;;;;;7.90;5.40;;;7.50;99.90;;;;;;5024361;28;20210;-73
2022/01/27 11:04:10;;;;;;;7.47;4.90;;;7.50;99.90;;;;;;5025997;28;20178;-77
2022/01/27 11:06:51;;;;;;;7.63;4.77;;;7.50;99.90;;;;;;5027904;28;20202;-84
2022/01/27 11:09:17;;;;;;;6.73;3.93;;;7.50;99.90;;;;;;5027968;28;21323;-74
2022/01/27 11:11:43;;;;;;;6.27;4.60;;;7.50;99.90;;;;;;5024762;28;20202;-79
2022/01/27 11:14:09;;;;;;;6.00;4.23;;;7.50;99.90;;;;;;5028022;28;20205;-81
2022/01/27 11:16:41;;;;;;;6.03;4.30;;;7.50;99.90;;;;;;5031967;28;20190;-81
2022/01/27 11:27:27;;;;;;;3.33;2.70;;;7.60;99.90;;;;;;5035719;28;20255;-82
2022/01/27 11:30:16;;;;;;;4.03;2.67;;;7.60;99.90;;;;;;5034089;28;20182;-77
2022/01/27 11:33:01;;;;;;;4.30;3.00;;;7.70;99.90;;;;;;5030051;28;20521;-71
2022/01/27 11:35:27;;;;;;;3.60;2.50;;;7.70;99.90;;;;;;5031189;28;20201;-74
2022/01/27 11:37:55;;;;;;;4.00;2.27;;;7.70;99.90;;;;;;5040995;28;20272;-77
2022/01/27 11:40:36;;;;;;;3.07;1.90;;;7.70;99.90;;;;;;5030374;28;20217;-84
2022/01/27 11:43:13;;;;;;;3.23;2.10;;;7.80;99.90;;;;;;5037401;28;20194;-84
2022/01/27 11:45:51;;;;;;;3.43;2.23;;;7.80;99.90;;;;;;5029340;28;20202;-79
2022/01/27 11:48:23;;;;;;;3.97;2.27;;;7.80;99.90;;;;;;5029534;28;20220;-85
2022/01/27 11:50:59;;;;;;;3.33;2.03;;;7.80;99.90;;;;;;5032259;28;20273;-77
2022/01/27 11:53:48;;;;;;;2.30;2.00;;;7.80;99.90;;;;;;5029425;28;20209;-78
2022/01/27 11:56:23;;;;;;;3.17;2.30;;;7.90;99.90;;;;;;5030486;28;20186;-89
2022/01/27 11:58:52;;;;;;;4.00;2.23;;;7.90;99.90;;;;;;5026512;28;20248;-76
2022/01/27 12:01:21;;;;;;;2.43;1.93;;;7.90;99.90;;;;;;5032829;28;20215;-80
2022/01/27 12:04:05;;;;;;;3.27;2.40;;;7.90;99.90;;;;;;5031342;28;20190;-77
2022/01/27 12:06:47;;;;;;;3.30;2.30;;;8.00;99.90;;;;;;5032177;28;20165;-88
2022/01/27 12:09:22;;;;;;;2.93;2.10;;;8.00;99.90;;;;;;5027392;28;20265;-78
2022/01/27 12:11:58;;;;;;;2.80;2.00;;;8.00;99.90;;;;;;5032281;28;20204;-81
2022/01/27 12:14:46;;;;;;;2.77;2.13;;;8.00;99.90;;;;;;5029739;28;20189;-74
2022/01/27 12:17:15;;;;;;;2.27;1.77;;;8.10;99.90;;;;;;5027317;28;20215;-84
2022/01/27 12:20:10;;;;;;;2.23;1.90;;;8.10;99.90;;;;;;5034953;28;20224;-80
2022/01/27 12:22:48;;;;;;;2.40;1.80;;;8.10;99.90;;;;;;5030991;28;20182;-76
2022/01/27 12:25:20;;;;;;;1.80;1.30;;;8.10;99.90;;;;;;5029191;28;20196;-78
2022/01/27 12:27:58;;;;;;;1.80;1.53;;;8.10;99.90;;;;;;5033331;28;20190;-84
2022/01/27 12:30:24;;;;;;;2.90;1.90;;;8.10;99.90;;;;;;5028380;28;20193;-81
2022/01/27 12:32:59;;;;;;;2.00;1.50;;;8.10;99.90;;;;;;5029648;28;20174;-81
2022/01/27 12:35:27;;;;;;;1.60;1.30;;;8.20;99.90;;;;;;5033675;28;20285;-76
2022/01/27 12:37:57;;;;;;;1.93;1.20;;;8.20;99.90;;;;;;5025760;28;20244;-80
2022/01/27 12:40:33;;;;;;;1.93;1.33;;;8.20;99.90;;;;;;5041246;28;20228;-81
2022/01/27 12:43:12;;;;;;;1.30;1.03;;;8.30;99.90;;;;;;5030181;28;20190;-79
2022/01/27 12:45:43;;;;;;;1.97;1.20;;;8.30;99.90;;;;;;5029542;28;20277;-79
2022/01/27 12:48:13;;;;;;;1.83;1.20;;;8.40;99.90;;;;;;5028455;28;20202;-83
2022/01/27 12:50:38;;;;;;;1.60;1.10;;;8.40;99.90;;;;;;5027413;28;20178;-80
2022/01/27 12:53:10;;;;;;;2.30;1.20;;;8.40;99.90;;;;;;5027346;28;20216;-78
2022/01/27 12:55:43;;;;;;;1.17;1.00;;;8.40;99.90;;;;;;5028622;28;20202;-75
2022/01/27 12:58:22;;;;;;;1.13;0.90;;;8.50;99.90;;;;;;5029545;28;20239;-77
2022/01/27 13:00:50;;;;;;;1.40;0.90;;;8.50;99.90;;;;;;5029181;28;20225;-79
2022/01/27 13:03:25;;;;;;;1.20;1.00;;;8.50;99.90;;;;;;5046469;28;20182;-84
2022/01/27 13:05:53;;;;;;;2.23;0.80;;;8.60;99.90;;;;;;5029869;28;20273;-74
2022/01/27 13:08:39;;;;;;;1.30;0.90;;;8.60;99.90;;;;;;5023439;28;20182;-76
2022/01/27 13:11:10;;;;;;;3.33;1.20;;;8.60;99.90;;;;;;5027108;28;20198;-79
2022/01/27 13:13:38;;;;;;;1.40;0.80;;;8.60;99.90;;;;;;5030314;28;20260;-81
2022/01/27 13:16:08;;;;;;;1.13;0.70;;;8.70;99.90;;;;;;5031525;28;20189;-72
2022/01/27 13:18:48;;;;;;;0.87;0.63;;;8.70;99.90;;;;;;5030196;28;20213;-73
2022/01/27 13:21:29;;;;;;;0.60;0.57;;;8.70;99.90;;;;;;5029322;28;20209;-79
2022/01/27 13:24:14;;;;;;;0.50;0.50;;;8.70;99.90;;;;;;5022981;28;20197;-73
2022/01/27 13:26:44;;;;;;;1.07;0.80;;;8.70;99.90;;;;;;5024736;28;20194;-78
2022/01/27 13:29:13;;;;;;;0.80;0.70;;;8.70;99.90;;;;;;5032682;28;20188;-76
2022/01/27 13:31:38;;;;;;;0.70;0.60;;;8.70;99.90;;;;;;5040625;28;20175;-82
2022/01/27 13:34:05;;;;;;;0.70;0.60;;;8.80;99.90;;;;;;5027685;28;20197;-73
2022/01/27 13:36:36;;;;;;;0.57;0.50;;;8.80;99.90;;;;;;5026469;28;20472;-83
2022/01/27 13:39:35;;;;;;;1.17;0.70;;;8.80;99.90;;;;;;5027868;28;20221;-82
2022/01/27 13:42:07;;;;;;;1.03;0.80;;;8.90;99.90;;;;;;5028553;28;20289;-80
2022/01/27 13:44:34;;;;;;;0.90;0.60;;;8.90;99.90;;;;;;5031809;28;20174;-81
2022/01/27 13:47:07;;;;;;;0.70;0.43;;;8.90;99.90;;;;;;5039277;28;20214;-82
2022/01/27 13:49:36;;;;;;;0.73;0.60;;;8.90;99.90;;;;;;5045913;28;20178;-77
2022/01/27 13:52:10;;;;;;;0.67;0.50;;;8.90;99.90;;;;;;5043093;28;20190;-86
2022/01/27 13:54:49;;;;;;;0.80;0.60;;;8.90;99.90;;;;;;5032345;28;20181;-78
2022/01/27 13:57:35;;;;;;;0.60;0.60;;;8.90;99.90;;;;;;5033812;28;20177;-74
2022/01/27 14:00:11;;;;;;;0.90;0.60;;;8.90;99.90;;;;;;5022995;28;20197;-82
2022/01/27 14:02:40;;;;;;;0.70;0.60;;;8.90;99.90;;;;;;5033264;28;20185;-82
2022/01/27 14:05:15;;;;;;;0.73;0.50;;;8.80;99.90;;;;;;5028945;28;20202;-76